KTGI

Tangier Island Airport

Tangier, Virginia, USA
METAR KTGI 232302Z AUTO 35011KT 10SM SCT070 BKN080 11/09 A2970 RMK AO1
Observed Flight Rules
Jan-23 @ 23:02 UTC (25 minutes ago) Visual Flight Rules
Wind Visibility Clouds
350° at 11 knots 10 miles
  • Scattered at 7,000' AGL
  • Broken at 8,000' AGL
Temperatures Readings
Current 11°C / 52°F
Dewpoint 9°C / 48°F
Humidity 88%
Altimeter 29.7" Hg
Pressure 1006 hPa
Elevation 2
METAR KTGI 232302Z AUTO 35011KT 10SM SCT070 BKN080 11/09 A2970 RMK AO1
Observed Flight Rules
Jan-23 @ 23:02 UTC
(25 minutes ago)
VFR
Wind Visibility
350° at 11 knots 10 miles
Clouds
  • Scattered at 7,000' AGL
  • Broken at 8,000' AGL
Temperature Dewpoint
11°C / 52°F 9°C / 48°F
Humidity Altimeter Pressure
88% 29.7" Hg 1006 hPa